createdAt,value
2022-12-26T00:02:21.010Z,8.99
2022-12-26T00:07:24.970Z,8.83
2022-12-26T00:12:28.807Z,9.21
2022-12-26T00:17:32.725Z,9.90
2022-12-26T00:22:36.446Z,9.56
2022-12-26T00:27:40.285Z,9.74
2022-12-26T00:32:44.368Z,9.65
2022-12-26T00:37:48.132Z,9.46
2022-12-26T00:42:51.849Z,8.95
2022-12-26T00:47:55.487Z,8.99
2022-12-26T00:52:59.405Z,8.68
2022-12-26T00:58:03.227Z,8.49
2022-12-26T01:03:12.107Z,8.42
2022-12-26T01:08:22.722Z,8.16
2022-12-26T01:13:28.335Z,7.78
2022-12-26T01:18:32.686Z,8.15
2022-12-26T01:23:36.816Z,8.19
2022-12-26T01:28:40.416Z,8.20
2022-12-26T01:33:44.549Z,8.29
2022-12-26T01:38:48.397Z,8.21
2022-12-26T01:43:58.598Z,8.15
2022-12-26T01:49:36.116Z,7.57
2022-12-26T01:54:46.046Z,7.50
2022-12-26T01:59:52.594Z,7.42
2022-12-26T02:05:18.865Z,7.61
2022-12-26T02:10:28.646Z,7.81
2022-12-26T02:15:32.890Z,8.26
2022-12-26T02:21:14.598Z,8.45
2022-12-26T02:27:00.003Z,8.50
2022-12-26T02:32:39.765Z,8.09
2022-12-26T02:38:08.134Z,7.95
2022-12-26T02:43:51.748Z,7.72
2022-12-26T02:49:17.568Z,7.37
2022-12-26T02:55:02.856Z,7.46
2022-12-26T03:00:37.085Z,7.19
2022-12-26T03:06:09.727Z,7.03
2022-12-26T03:11:32.885Z,6.84
2022-12-26T03:16:55.010Z,6.76
2022-12-26T03:22:22.599Z,6.85
2022-12-26T03:27:26.441Z,7.01
2022-12-26T03:32:43.849Z,6.94
2022-12-26T03:38:18.212Z,7.16
2022-12-26T03:43:59.411Z,7.06
2022-12-26T03:49:52.189Z,7.10
2022-12-26T03:55:39.750Z,7.09
2022-12-26T04:01:04.659Z,7.14
2022-12-26T04:06:39.438Z,7.45
2022-12-26T04:12:04.739Z,7.57
2022-12-26T04:18:01.815Z,7.54
2022-12-26T04:23:37.387Z,7.40
2022-12-26T04:28:59.955Z,7.29
2022-12-26T04:34:39.105Z,7.36
2022-12-26T04:40:05.970Z,7.81
2022-12-26T04:45:12.786Z,8.03
2022-12-26T04:50:16.342Z,7.76
2022-12-26T04:55:20.204Z,7.83
2022-12-26T05:00:28.313Z,7.88
2022-12-26T05:06:01.900Z,7.76
2022-12-26T05:11:05.675Z,7.65
2022-12-26T05:16:28.393Z,7.87
2022-12-26T05:21:51.010Z,7.88
2022-12-26T05:27:13.266Z,7.63
2022-12-26T05:32:35.626Z,7.33
2022-12-26T05:37:39.360Z,7.31
2022-12-26T05:42:43.078Z,7.33
2022-12-26T05:47:51.660Z,7.44
2022-12-26T05:52:59.731Z,7.48
2022-12-26T05:58:03.976Z,7.62
2022-12-26T06:03:07.569Z,7.54
2022-12-26T06:08:11.530Z,7.68
2022-12-26T06:13:15.454Z,7.55
2022-12-26T06:18:19.066Z,7.73
2022-12-26T06:23:22.785Z,7.72
2022-12-26T06:28:26.743Z,7.73
2022-12-26T06:33:30.454Z,7.46
2022-12-26T06:38:35.903Z,6.91
2022-12-26T06:43:39.505Z,6.82
2022-12-26T06:54:05.304Z,6.90
2022-12-26T06:59:11.586Z,7.07
2022-12-26T07:04:15.132Z,7.05
2022-12-26T07:09:20.371Z,7.23
2022-12-26T07:14:23.980Z,6.95
2022-12-26T07:19:27.566Z,6.94
2022-12-26T07:24:31.440Z,7.04
2022-12-26T07:29:35.268Z,7.23
2022-12-26T07:34:45.202Z,6.94
2022-12-26T07:39:53.797Z,7.02
2022-12-26T07:45:03.312Z,6.81
2022-12-26T07:50:08.102Z,6.91
2022-12-26T07:55:11.694Z,6.96
2022-12-26T08:00:16.179Z,6.94
2022-12-26T08:05:21.248Z,7.17
2022-12-26T08:10:24.904Z,7.18
2022-12-26T08:15:28.656Z,7.27
2022-12-26T08:20:33.267Z,7.50
2022-12-26T08:25:37.086Z,8.02
2022-12-26T08:30:41.966Z,8.37
2022-12-26T08:35:45.768Z,8.69
2022-12-26T08:40:57.487Z,8.99
2022-12-26T08:46:10.665Z,10.04
2022-12-26T08:51:19.396Z,9.41
2022-12-26T08:56:27.025Z,9.27
2022-12-26T09:01:32.377Z,9.15
2022-12-26T09:06:38.828Z,9.32
2022-12-26T09:11:43.196Z,9.37
2022-12-26T09:16:50.867Z,9.20
2022-12-26T09:22:14.959Z,9.50
2022-12-26T09:27:19.215Z,9.83
2022-12-26T09:32:22.949Z,9.70
2022-12-26T09:37:26.963Z,9.45
2022-12-26T09:42:57.093Z,9.97
2022-12-26T09:48:24.552Z,10.25
2022-12-26T09:53:39.467Z,9.87
2022-12-26T09:58:51.773Z,9.75
2022-12-26T10:04:01.301Z,11.01
2022-12-26T10:09:39.732Z,11.59
2022-12-26T10:15:21.161Z,11.93
2022-12-26T10:21:22.814Z,11.98
2022-12-26T10:26:45.241Z,11.66
2022-12-26T10:31:59.176Z,11.05
2022-12-26T10:37:33.740Z,11.64
2022-12-26T10:42:42.218Z,11.59
2022-12-26T10:47:52.049Z,11.47
2022-12-26T10:52:58.658Z,11.79
2022-12-26T10:58:30.005Z,11.60
2022-12-26T11:03:34.661Z,11.51
2022-12-26T11:08:50.949Z,11.35
2022-12-26T11:14:02.814Z,11.66
2022-12-26T11:19:27.000Z,12.09
2022-12-26T11:24:31.762Z,11.74
2022-12-26T11:29:38.944Z,11.63
2022-12-26T11:34:48.702Z,12.07
2022-12-26T11:39:54.357Z,12.43
2022-12-26T11:45:11.550Z,12.21
2022-12-26T11:50:28.883Z,12.38
2022-12-26T11:55:39.589Z,12.57
2022-12-26T12:00:51.117Z,12.50
2022-12-26T12:06:40.326Z,12.71
2022-12-26T12:12:28.988Z,13.07
2022-12-26T12:18:11.104Z,13.42
2022-12-26T12:23:51.934Z,13.42
2022-12-26T12:29:17.269Z,13.90
2022-12-26T12:35:09.520Z,13.73
2022-12-26T12:40:49.291Z,13.37
2022-12-26T12:46:22.702Z,13.21
2022-12-26T12:52:08.848Z,14.14
2022-12-26T12:57:34.997Z,13.84
2022-12-26T13:03:01.919Z,13.58
2022-12-26T13:08:33.510Z,13.94
2022-12-26T13:14:08.065Z,14.09
2022-12-26T13:19:26.068Z,13.79
2022-12-26T13:24:41.198Z,13.79
2022-12-26T13:29:49.102Z,13.47
2022-12-26T13:34:57.722Z,13.57
2022-12-26T13:40:15.740Z,13.29
2022-12-26T13:45:43.412Z,13.06
2022-12-26T13:50:56.420Z,13.04
2022-12-26T13:56:11.014Z,13.02
2022-12-26T14:02:07.459Z,13.25
2022-12-26T14:08:04.466Z,12.97
2022-12-26T14:13:28.170Z,12.74
2022-12-26T14:18:58.084Z,12.68
2022-12-26T14:24:21.469Z,12.72
2022-12-26T14:30:06.950Z,12.55
2022-12-26T14:35:29.013Z,12.28
2022-12-26T14:40:38.447Z,12.28
2022-12-26T14:45:52.133Z,12.12
2022-12-26T14:51:16.134Z,12.10
2022-12-26T14:56:21.264Z,12.09
2022-12-26T15:01:25.229Z,12.02
2022-12-26T15:07:00.817Z,11.91
2022-12-26T15:12:58.878Z,11.80
2022-12-26T15:18:21.501Z,11.88
2022-12-26T15:23:56.962Z,11.93
2022-12-26T15:29:22.973Z,12.01
2022-12-26T15:35:15.660Z,12.03
2022-12-26T15:40:33.373Z,12.09
2022-12-26T15:46:01.602Z,11.99
2022-12-26T15:51:25.900Z,11.91
2022-12-26T15:56:48.263Z,11.92
2022-12-26T16:01:54.298Z,12.01
2022-12-26T16:07:32.780Z,11.84
2022-12-26T16:12:41.087Z,11.62
2022-12-26T16:17:46.994Z,11.55
2022-12-26T16:22:51.207Z,11.39
2022-12-26T16:28:00.468Z,11.48
2022-12-26T16:33:05.709Z,11.49
2022-12-26T16:38:18.651Z,11.52
2022-12-26T16:43:31.789Z,11.45
2022-12-26T16:48:37.545Z,11.46
2022-12-26T16:53:45.869Z,11.54
2022-12-26T16:59:17.601Z,11.54
2022-12-26T17:04:26.744Z,11.66
2022-12-26T17:09:41.571Z,11.72
2022-12-26T17:14:49.640Z,11.88
2022-12-26T17:20:00.063Z,11.87
2022-12-26T17:25:29.813Z,11.88
2022-12-26T17:30:37.122Z,11.98
2022-12-26T17:36:33.290Z,11.89
2022-12-26T17:41:10.364Z,11.82
2022-12-26T17:46:18.185Z,11.73
2022-12-26T17:51:22.454Z,11.66
2022-12-26T17:56:27.823Z,11.61
2022-12-26T18:01:31.691Z,11.57
2022-12-26T18:06:36.086Z,11.46
2022-12-26T18:11:40.620Z,11.39
2022-12-26T18:16:44.798Z,11.36
2022-12-26T18:21:48.794Z,11.43
2022-12-26T18:26:53.430Z,11.46
2022-12-26T18:31:59.013Z,11.51
2022-12-26T18:37:03.014Z,11.61
2022-12-26T18:42:15.401Z,11.61
2022-12-26T18:47:22.517Z,11.61
2022-12-26T18:52:26.591Z,11.61
2022-12-26T18:57:30.936Z,11.70
2022-12-26T19:02:35.828Z,11.85
2022-12-26T19:07:39.896Z,11.81
2022-12-26T19:12:44.851Z,11.66
2022-12-26T19:17:48.899Z,11.74
2022-12-26T19:22:55.209Z,11.74
2022-12-26T19:27:58.984Z,11.85
2022-12-26T19:33:03.025Z,11.64
2022-12-26T19:38:07.144Z,11.69
2022-12-26T19:43:11.432Z,11.84
2022-12-26T19:48:23.197Z,11.65
2022-12-26T19:53:29.899Z,11.74
2022-12-26T19:58:35.803Z,11.83
2022-12-26T20:03:40.913Z,11.94
2022-12-26T20:08:49.348Z,12.73
2022-12-26T20:13:54.886Z,12.95
2022-12-26T20:18:59.057Z,12.70
2022-12-26T20:24:05.565Z,12.46
2022-12-26T20:29:09.979Z,12.52
2022-12-26T20:34:14.852Z,12.66
2022-12-26T20:39:20.345Z,12.73
2022-12-26T20:44:25.914Z,12.54
2022-12-26T20:49:30.300Z,12.25
2022-12-26T20:54:35.171Z,12.17
2022-12-26T20:59:40.744Z,12.05
2022-12-26T21:04:46.001Z,11.88
2022-12-26T21:09:50.521Z,12.11
2022-12-26T21:14:54.555Z,12.30
2022-12-26T21:19:58.462Z,12.49
2022-12-26T21:25:02.795Z,12.61
2022-12-26T21:30:08.023Z,12.42
2022-12-26T21:35:12.901Z,12.37
2022-12-26T21:40:17.397Z,12.25
2022-12-26T21:45:23.066Z,12.35
2022-12-26T21:50:28.311Z,12.51
2022-12-26T21:55:36.918Z,12.09
2022-12-26T22:00:42.480Z,11.91
2022-12-26T22:05:46.501Z,11.89
2022-12-26T22:11:09.692Z,11.69
2022-12-26T22:16:13.554Z,11.56
2022-12-26T22:21:22.038Z,11.53
2022-12-26T22:26:28.628Z,11.54
2022-12-26T22:31:36.859Z,11.40
2022-12-26T22:36:42.097Z,11.21
2022-12-26T22:41:47.282Z,11.00
2022-12-26T22:46:51.749Z,10.80
2022-12-26T22:51:56.260Z,10.72
2022-12-26T22:57:00.089Z,10.74
2022-12-26T23:02:04.781Z,10.77
2022-12-26T23:07:15.587Z,10.71
2022-12-26T23:12:39.206Z,11.01
2022-12-26T23:18:12.959Z,11.23
2022-12-26T23:23:17.488Z,11.52
2022-12-26T23:28:39.846Z,12.02
2022-12-26T23:33:43.780Z,12.48
2022-12-26T23:38:48.523Z,11.77
2022-12-26T23:43:52.233Z,11.30
2022-12-26T23:48:57.700Z,11.57
2022-12-26T23:54:01.997Z,11.34
2022-12-26T23:59:06.608Z,11.66
